createdAt,value
2022-12-01T00:04:44.896Z,61.66
2022-12-01T00:10:04.667Z,60.00
2022-12-01T00:15:06.264Z,59.66
2022-12-01T00:20:08.023Z,59.63
2022-12-01T00:25:09.572Z,59.43
2022-12-01T00:30:11.979Z,59.92
2022-12-01T00:35:13.740Z,59.11
2022-12-01T00:40:15.198Z,58.92
2022-12-01T00:45:16.693Z,62.61
2022-12-01T00:50:18.156Z,61.47
2022-12-01T00:55:19.608Z,61.12
2022-12-01T01:00:21.211Z,60.23
2022-12-01T01:05:23.276Z,61.85
2022-12-01T01:10:24.740Z,63.27
2022-12-01T01:15:26.193Z,62.07
2022-12-01T01:20:27.768Z,60.56
2022-12-01T01:25:29.227Z,60.86
2022-12-01T01:30:30.737Z,61.46
2022-12-01T01:35:32.237Z,61.42
2022-12-01T01:40:33.682Z,61.54
2022-12-01T01:45:35.292Z,60.38
2022-12-01T01:50:36.806Z,59.48
2022-12-01T01:55:38.254Z,60.07
2022-12-01T02:00:40.569Z,60.44
2022-12-01T02:05:42.028Z,61.09
2022-12-01T02:10:58.707Z,60.54
2022-12-01T02:16:08.088Z,59.67
2022-12-01T02:21:28.387Z,60.35
2022-12-01T02:26:49.206Z,61.37
2022-12-01T02:32:05.389Z,63.02
2022-12-01T02:37:43.830Z,61.01
2022-12-01T02:43:08.436Z,61.17
2022-12-01T02:48:28.110Z,60.41
2022-12-01T02:53:29.580Z,59.29
2022-12-01T02:58:31.110Z,59.20
2022-12-01T03:03:45.051Z,59.85
2022-12-01T03:09:15.728Z,59.66
2022-12-01T03:14:24.874Z,58.96
2022-12-01T03:19:34.787Z,59.03
2022-12-01T03:24:36.275Z,59.90
2022-12-01T03:29:41.291Z,59.62
2022-12-01T03:34:45.976Z,60.85
2022-12-01T03:39:48.456Z,62.10
2022-12-01T03:44:53.406Z,60.67
2022-12-01T03:49:54.900Z,59.56
2022-12-01T03:55:12.733Z,58.72
2022-12-01T04:00:14.465Z,60.42
2022-12-01T04:05:17.317Z,62.12
2022-12-01T04:10:20.407Z,63.14
2022-12-01T04:15:21.867Z,63.30
2022-12-01T04:20:23.334Z,62.25
2022-12-01T04:25:24.805Z,60.41
2022-12-01T04:30:26.254Z,59.26
2022-12-01T04:35:27.713Z,60.65
2022-12-01T04:40:29.161Z,60.35
2022-12-01T04:45:30.625Z,59.25
2022-12-01T04:50:32.079Z,59.80
2022-12-01T04:55:38.888Z,60.07
2022-12-01T05:00:40.441Z,58.07
2022-12-01T05:05:41.956Z,56.42
2022-12-01T05:10:43.439Z,56.48
2022-12-01T05:15:44.890Z,57.22
2022-12-01T05:20:58.019Z,56.81
2022-12-01T05:25:59.637Z,57.18
2022-12-01T05:31:01.245Z,57.60
2022-12-01T05:36:02.807Z,55.71
2022-12-01T05:41:04.308Z,56.99
2022-12-01T05:46:05.965Z,56.27
2022-12-01T05:51:09.159Z,55.29
2022-12-01T05:56:10.735Z,55.86
2022-12-01T06:01:12.200Z,54.81
2022-12-01T06:06:13.669Z,54.71
2022-12-01T06:11:15.122Z,54.91
2022-12-01T06:16:16.609Z,54.73
2022-12-01T06:21:18.074Z,54.84
2022-12-01T06:26:19.551Z,53.27
2022-12-01T06:31:21.055Z,54.58
2022-12-01T06:36:22.557Z,54.24
2022-12-01T06:41:24.085Z,53.70
2022-12-01T06:46:25.866Z,54.06
2022-12-01T06:51:27.412Z,54.63
2022-12-01T06:56:28.893Z,54.77
2022-12-01T07:01:30.653Z,53.98
2022-12-01T07:06:32.284Z,53.47
2022-12-01T07:11:36.313Z,53.82
2022-12-01T07:16:37.835Z,55.20
2022-12-01T07:21:39.371Z,54.64
2022-12-01T07:26:41.267Z,53.94
2022-12-01T07:31:42.812Z,53.54
2022-12-01T07:36:44.258Z,53.04
2022-12-01T07:41:45.711Z,53.20
2022-12-01T07:46:47.225Z,53.24
2022-12-01T07:51:48.720Z,53.13
2022-12-01T07:56:50.247Z,52.78
2022-12-01T08:01:51.829Z,53.04
2022-12-01T08:06:53.324Z,52.39
2022-12-01T08:11:54.821Z,52.76
2022-12-01T08:16:56.274Z,53.09
2022-12-01T08:21:57.757Z,53.31
2022-12-01T08:26:59.203Z,53.49
2022-12-01T08:32:00.655Z,53.56
2022-12-01T08:37:02.143Z,53.96
2022-12-01T08:42:03.670Z,53.50
2022-12-01T08:47:05.126Z,53.21
2022-12-01T08:52:06.605Z,53.64
2022-12-01T08:57:08.125Z,53.24
2022-12-01T09:02:14.144Z,53.80
2022-12-01T09:07:19.146Z,51.50
2022-12-01T09:12:24.427Z,51.89
2022-12-01T09:17:25.923Z,51.54
2022-12-01T09:22:27.385Z,52.14
2022-12-01T09:27:28.831Z,51.28
2022-12-01T09:32:30.288Z,50.90
2022-12-01T09:37:31.751Z,50.93
2022-12-01T09:42:35.492Z,50.44
2022-12-01T09:47:37.371Z,50.52
2022-12-01T09:52:41.174Z,49.93
2022-12-01T09:57:43.013Z,50.20
2022-12-01T10:03:08.696Z,49.90
2022-12-01T10:08:13.316Z,50.43
2022-12-01T10:13:20.335Z,50.93
2022-12-01T10:18:36.103Z,49.70
2022-12-01T10:24:05.459Z,49.37
2022-12-01T10:29:29.630Z,48.98
2022-12-01T10:34:35.464Z,48.75
2022-12-01T10:39:38.163Z,48.80
2022-12-01T10:44:40.171Z,49.34
2022-12-01T10:49:41.644Z,48.84
2022-12-01T10:54:43.103Z,48.70
2022-12-01T11:00:00.343Z,48.94
2022-12-01T11:05:05.628Z,47.95
2022-12-01T11:10:21.694Z,47.50
2022-12-01T11:15:25.902Z,47.32
2022-12-01T11:20:35.488Z,46.70
2022-12-01T11:25:36.999Z,47.28
2022-12-01T11:30:38.469Z,46.01
2022-12-01T11:35:39.921Z,46.01
2022-12-01T11:40:59.200Z,46.35
2022-12-01T11:46:05.575Z,46.44
2022-12-01T11:51:08.026Z,46.17
2022-12-01T11:56:20.732Z,46.50
2022-12-01T12:01:35.059Z,46.68
2022-12-01T12:06:52.448Z,46.43
2022-12-01T12:12:16.974Z,47.59
2022-12-01T12:17:39.876Z,48.26
2022-12-01T12:23:12.356Z,48.57
2022-12-01T12:28:24.539Z,48.38
2022-12-01T12:33:30.197Z,48.66
2022-12-01T12:38:37.561Z,50.99
2022-12-01T12:43:58.414Z,50.47
2022-12-01T12:49:25.784Z,50.69
2022-12-01T12:54:48.347Z,49.46
2022-12-01T12:59:53.483Z,50.38
2022-12-01T13:05:10.322Z,50.35
2022-12-01T13:10:22.761Z,50.48
2022-12-01T13:15:24.241Z,50.36
2022-12-01T13:20:27.802Z,51.03
2022-12-01T13:25:34.595Z,51.33
2022-12-01T13:30:36.083Z,50.91
2022-12-01T13:35:37.911Z,50.61
2022-12-01T13:40:39.442Z,50.79
2022-12-01T13:45:40.894Z,51.14
2022-12-01T13:50:48.303Z,50.82
2022-12-01T13:56:01.321Z,51.01
2022-12-01T14:01:41.603Z,51.01
2022-12-01T14:06:50.419Z,50.48
2022-12-01T14:12:02.616Z,49.36
2022-12-01T14:17:04.211Z,50.47
2022-12-01T14:22:06.402Z,50.96
2022-12-01T14:27:07.947Z,50.75
2022-12-01T14:32:09.236Z,50.05
2022-12-01T14:37:16.249Z,50.38
2022-12-01T14:42:51.239Z,50.84
2022-12-01T14:47:57.870Z,52.09
2022-12-01T14:53:21.310Z,52.69
2022-12-01T14:58:25.847Z,52.56
2022-12-01T15:03:32.072Z,52.82
2022-12-01T15:09:10.690Z,53.31
2022-12-01T15:13:56.686Z,52.78
2022-12-01T15:18:58.227Z,51.40
2022-12-01T15:24:04.483Z,51.96
2022-12-01T15:29:14.492Z,51.59
2022-12-01T15:34:17.861Z,52.30
2022-12-01T15:39:29.715Z,51.26
2022-12-01T15:44:35.680Z,52.87
2022-12-01T15:49:48.191Z,54.34
2022-12-01T15:54:49.919Z,55.83
2022-12-01T15:59:53.980Z,55.66
2022-12-01T16:05:14.340Z,54.66
2022-12-01T16:10:33.098Z,54.45
2022-12-01T16:15:42.528Z,55.10
2022-12-01T16:20:43.838Z,54.68
2022-12-01T16:25:47.283Z,54.52
2022-12-01T16:30:48.776Z,54.45
2022-12-01T16:35:50.441Z,53.70
2022-12-01T16:40:53.441Z,53.54
2022-12-01T16:45:58.102Z,52.87
2022-12-01T16:51:02.522Z,52.66
2022-12-01T16:56:04.055Z,52.30
2022-12-01T17:01:06.144Z,51.45
2022-12-01T17:06:07.905Z,51.00
2022-12-01T17:11:09.600Z,50.84
2022-12-01T17:16:16.748Z,51.18
2022-12-01T17:21:19.718Z,50.53
2022-12-01T17:26:21.336Z,50.62
2022-12-01T17:31:22.910Z,49.71
2022-12-01T17:36:24.440Z,50.05
2022-12-01T17:41:32.099Z,50.32
2022-12-01T17:46:33.673Z,50.48
2022-12-01T17:51:36.310Z,49.33
2022-12-01T17:56:37.773Z,49.84
2022-12-01T18:01:41.037Z,49.39
2022-12-01T18:06:42.921Z,49.47
2022-12-01T18:11:44.474Z,50.92
2022-12-01T18:16:45.969Z,49.69
2022-12-01T18:21:47.769Z,49.83
2022-12-01T18:26:49.434Z,48.84
2022-12-01T18:31:52.807Z,48.56
2022-12-01T18:36:54.256Z,47.99
2022-12-01T18:41:56.202Z,49.08
2022-12-01T18:46:58.907Z,49.23
2022-12-01T18:52:00.423Z,50.35
2022-12-01T18:57:01.886Z,49.73
2022-12-01T19:02:03.407Z,50.11
2022-12-01T19:07:04.892Z,50.07
2022-12-01T19:12:06.535Z,50.71
2022-12-01T19:17:08.014Z,49.84
2022-12-01T19:22:09.480Z,49.44
2022-12-01T19:27:10.958Z,49.60
2022-12-01T19:32:12.460Z,49.31
2022-12-01T19:37:14.013Z,49.36
2022-12-01T19:42:15.506Z,49.57
2022-12-01T19:47:21.885Z,48.95
2022-12-01T19:52:23.959Z,50.22
2022-12-01T19:57:25.418Z,49.91
2022-12-01T20:02:29.324Z,50.80
2022-12-01T20:07:31.138Z,51.57
2022-12-01T20:12:34.048Z,52.06
2022-12-01T20:17:36.560Z,51.24
2022-12-01T20:22:38.075Z,51.61
2022-12-01T20:27:39.659Z,51.82
2022-12-01T20:32:41.116Z,51.72
2022-12-01T20:37:42.580Z,52.34
2022-12-01T20:42:44.030Z,51.81
2022-12-01T20:47:45.875Z,52.14
2022-12-01T20:52:47.328Z,51.91
2022-12-01T20:57:48.823Z,51.70
2022-12-01T21:02:50.456Z,51.65
2022-12-01T21:07:52.290Z,50.60
2022-12-01T21:13:17.936Z,51.04
2022-12-01T21:18:24.771Z,51.14
2022-12-01T21:23:26.232Z,50.95
2022-12-01T21:28:27.711Z,50.28
2022-12-01T21:33:33.346Z,50.46
2022-12-01T21:38:34.843Z,51.17
2022-12-01T21:43:38.398Z,50.71
2022-12-01T21:48:40.184Z,51.21
2022-12-01T21:53:41.666Z,50.65
2022-12-01T21:58:43.166Z,50.13
2022-12-01T22:03:45.109Z,50.65
2022-12-01T22:08:47.150Z,50.80
2022-12-01T22:14:10.077Z,51.06
2022-12-01T22:19:29.384Z,51.30
2022-12-01T22:24:39.961Z,50.54
2022-12-01T22:29:45.759Z,50.71
2022-12-01T22:34:53.692Z,50.54
2022-12-01T22:39:55.787Z,51.10
2022-12-01T22:45:02.594Z,51.46
2022-12-01T22:50:20.920Z,50.98
2022-12-01T22:55:22.406Z,50.83
2022-12-01T23:00:24.319Z,50.41
2022-12-01T23:05:27.230Z,50.51
2022-12-01T23:10:29.857Z,51.37
2022-12-01T23:15:38.002Z,52.55
2022-12-01T23:20:39.653Z,50.97
2022-12-01T23:25:41.381Z,51.66
2022-12-01T23:30:44.375Z,52.37
2022-12-01T23:35:46.885Z,51.61
2022-12-01T23:40:49.169Z,51.75
2022-12-01T23:45:55.612Z,51.58
2022-12-01T23:50:57.072Z,52.32
2022-12-01T23:56:05.345Z,53.28
